sensor_id;sensor_type;location;lat;lon;timestamp;temperature;humidity
46319;DHT22;32042;50.916;2.926;2023-01-09T00:01:36;6.30;99.90
46319;DHT22;32042;50.916;2.926;2023-01-09T00:04:02;6.30;99.90
46319;DHT22;32042;50.916;2.926;2023-01-09T00:06:28;6.30;99.90
46319;DHT22;32042;50.916;2.926;2023-01-09T00:08:54;6.30;99.90
46319;DHT22;32042;50.916;2.926;2023-01-09T00:11:20;6.30;99.90
46319;DHT22;32042;50.916;2.926;2023-01-09T00:13:45;6.20;99.90
46319;DHT22;32042;50.916;2.926;2023-01-09T00:16:12;6.30;99.90
46319;DHT22;32042;50.916;2.926;2023-01-09T00:18:39;6.30;99.90
46319;DHT22;32042;50.916;2.926;2023-01-09T00:21:07;6.30;99.90
46319;DHT22;32042;50.916;2.926;2023-01-09T00:23:34;6.30;99.90
46319;DHT22;32042;50.916;2.926;2023-01-09T00:26:01;6.40;99.90
46319;DHT22;32042;50.916;2.926;2023-01-09T00:28:27;6.40;99.90
46319;DHT22;32042;50.916;2.926;2023-01-09T00:30:57;6.30;99.90
46319;DHT22;32042;50.916;2.926;2023-01-09T00:34:10;6.40;99.90
46319;DHT22;32042;50.916;2.926;2023-01-09T00:36:35;6.30;99.90
46319;DHT22;32042;50.916;2.926;2023-01-09T00:39:01;6.30;99.90
46319;DHT22;32042;50.916;2.926;2023-01-09T00:41:30;6.30;99.90
46319;DHT22;32042;50.916;2.926;2023-01-09T00:44:02;6.30;99.90
46319;DHT22;32042;50.916;2.926;2023-01-09T00:46:32;6.30;99.90
46319;DHT22;32042;50.916;2.926;2023-01-09T00:48:59;6.30;99.90
46319;DHT22;32042;50.916;2.926;2023-01-09T00:51:26;6.20;99.90
46319;DHT22;32042;50.916;2.926;2023-01-09T00:53:52;6.20;99.90
46319;DHT22;32042;50.916;2.926;2023-01-09T00:56:19;6.20;99.90
46319;DHT22;32042;50.916;2.926;2023-01-09T00:58:48;6.10;99.90
46319;DHT22;32042;50.916;2.926;2023-01-09T01:01:14;6.10;99.90
46319;DHT22;32042;50.916;2.926;2023-01-09T01:03:40;6.10;99.90
46319;DHT22;32042;50.916;2.926;2023-01-09T01:06:06;6.10;99.90
46319;DHT22;32042;50.916;2.926;2023-01-09T01:08:50;6.10;99.90
46319;DHT22;32042;50.916;2.926;2023-01-09T01:11:16;6.10;99.90
46319;DHT22;32042;50.916;2.926;2023-01-09T01:13:41;6.10;99.90
46319;DHT22;32042;50.916;2.926;2023-01-09T01:16:09;6.10;99.90
46319;DHT22;32042;50.916;2.926;2023-01-09T01:18:35;6.10;99.90
46319;DHT22;32042;50.916;2.926;2023-01-09T01:21:08;6.20;99.90
46319;DHT22;32042;50.916;2.926;2023-01-09T01:23:35;6.20;99.90
46319;DHT22;32042;50.916;2.926;2023-01-09T01:26:09;6.30;99.90
46319;DHT22;32042;50.916;2.926;2023-01-09T01:28:36;6.30;99.90
46319;DHT22;32042;50.916;2.926;2023-01-09T01:31:02;6.30;99.90
46319;DHT22;32042;50.916;2.926;2023-01-09T01:33:28;6.40;99.90
46319;DHT22;32042;50.916;2.926;2023-01-09T01:36:02;6.30;99.90
46319;DHT22;32042;50.916;2.926;2023-01-09T01:38:28;6.40;99.90
46319;DHT22;32042;50.916;2.926;2023-01-09T01:40:54;6.40;99.90
46319;DHT22;32042;50.916;2.926;2023-01-09T01:43:20;6.40;99.90
46319;DHT22;32042;50.916;2.926;2023-01-09T01:45:45;6.50;99.90
46319;DHT22;32042;50.916;2.926;2023-01-09T01:48:24;6.50;99.90
46319;DHT22;32042;50.916;2.926;2023-01-09T01:50:56;6.50;99.90
46319;DHT22;32042;50.916;2.926;2023-01-09T01:53:41;6.60;99.90
46319;DHT22;32042;50.916;2.926;2023-01-09T02:01:31;6.60;99.90
46319;DHT22;32042;50.916;2.926;2023-01-09T02:03:59;6.60;99.90
46319;DHT22;32042;50.916;2.926;2023-01-09T02:06:27;6.70;99.90
46319;DHT22;32042;50.916;2.926;2023-01-09T02:08:54;6.70;99.90
46319;DHT22;32042;50.916;2.926;2023-01-09T02:11:20;6.70;99.90
46319;DHT22;32042;50.916;2.926;2023-01-09T02:13:46;6.70;99.90
46319;DHT22;32042;50.916;2.926;2023-01-09T02:19:18;6.70;99.90
46319;DHT22;32042;50.916;2.926;2023-01-09T02:33:13;6.60;99.90
46319;DHT22;32042;50.916;2.926;2023-01-09T02:43:43;6.60;99.90
46319;DHT22;32042;50.916;2.926;2023-01-09T02:46:20;6.60;99.90
46319;DHT22;32042;50.916;2.926;2023-01-09T02:48:49;6.60;99.90
46319;DHT22;32042;50.916;2.926;2023-01-09T02:54:01;6.60;99.90
46319;DHT22;32042;50.916;2.926;2023-01-09T03:02:10;6.70;99.90
46319;DHT22;32042;50.916;2.926;2023-01-09T03:04:51;6.70;99.90
46319;DHT22;32042;50.916;2.926;2023-01-09T03:07:29;6.80;99.90
46319;DHT22;32042;50.916;2.926;2023-01-09T03:10:00;6.80;99.90
46319;DHT22;32042;50.916;2.926;2023-01-09T03:12:28;6.80;99.90
46319;DHT22;32042;50.916;2.926;2023-01-09T03:14:59;6.80;99.90
46319;DHT22;32042;50.916;2.926;2023-01-09T03:17:40;6.80;99.90
46319;DHT22;32042;50.916;2.926;2023-01-09T03:20:08;6.90;99.90
46319;DHT22;32042;50.916;2.926;2023-01-09T03:22:34;6.90;99.90
46319;DHT22;32042;50.916;2.926;2023-01-09T03:25:00;6.90;99.90
46319;DHT22;32042;50.916;2.926;2023-01-09T03:27:26;6.90;99.90
46319;DHT22;32042;50.916;2.926;2023-01-09T03:29:52;6.90;99.90
46319;DHT22;32042;50.916;2.926;2023-01-09T03:32:19;6.90;99.90
46319;DHT22;32042;50.916;2.926;2023-01-09T03:34:44;6.90;99.90
46319;DHT22;32042;50.916;2.926;2023-01-09T03:37:10;7.00;99.90
46319;DHT22;32042;50.916;2.926;2023-01-09T03:39:36;7.00;99.90
46319;DHT22;32042;50.916;2.926;2023-01-09T03:42:01;7.00;99.90
46319;DHT22;32042;50.916;2.926;2023-01-09T03:44:27;7.10;99.90
46319;DHT22;32042;50.916;2.926;2023-01-09T03:46:53;7.10;99.90
46319;DHT22;32042;50.916;2.926;2023-01-09T03:49:18;7.10;99.90
46319;DHT22;32042;50.916;2.926;2023-01-09T03:51:44;7.10;99.90
46319;DHT22;32042;50.916;2.926;2023-01-09T03:54:10;7.20;99.90
46319;DHT22;32042;50.916;2.926;2023-01-09T03:56:35;7.20;99.90
46319;DHT22;32042;50.916;2.926;2023-01-09T03:59:01;7.20;99.90
46319;DHT22;32042;50.916;2.926;2023-01-09T04:01:27;7.30;99.90
46319;DHT22;32042;50.916;2.926;2023-01-09T04:03:52;7.30;99.90
46319;DHT22;32042;50.916;2.926;2023-01-09T04:06:18;7.30;99.90
46319;DHT22;32042;50.916;2.926;2023-01-09T04:08:44;7.40;99.90
46319;DHT22;32042;50.916;2.926;2023-01-09T04:11:10;7.40;99.90
46319;DHT22;32042;50.916;2.926;2023-01-09T04:13:36;7.40;99.90
46319;DHT22;32042;50.916;2.926;2023-01-09T04:16:02;7.40;99.90
46319;DHT22;32042;50.916;2.926;2023-01-09T04:18:28;7.40;99.90
46319;DHT22;32042;50.916;2.926;2023-01-09T04:20:54;7.40;99.90
46319;DHT22;32042;50.916;2.926;2023-01-09T04:23:19;7.50;99.90
46319;DHT22;32042;50.916;2.926;2023-01-09T04:25:45;7.50;99.90
46319;DHT22;32042;50.916;2.926;2023-01-09T04:28:12;7.50;99.90
46319;DHT22;32042;50.916;2.926;2023-01-09T04:30:37;7.50;99.90
46319;DHT22;32042;50.916;2.926;2023-01-09T04:33:03;7.50;99.90
46319;DHT22;32042;50.916;2.926;2023-01-09T04:35:29;7.60;99.90
46319;DHT22;32042;50.916;2.926;2023-01-09T04:37:54;7.60;99.90
46319;DHT22;32042;50.916;2.926;2023-01-09T04:40:20;7.60;99.90
46319;DHT22;32042;50.916;2.926;2023-01-09T04:42:46;7.70;99.90
46319;DHT22;32042;50.916;2.926;2023-01-09T04:45:11;7.70;99.90
46319;DHT22;32042;50.916;2.926;2023-01-09T04:47:39;7.70;99.90
46319;DHT22;32042;50.916;2.926;2023-01-09T04:50:05;7.70;99.90
46319;DHT22;32042;50.916;2.926;2023-01-09T04:52:31;7.80;99.90
46319;DHT22;32042;50.916;2.926;2023-01-09T04:54:57;7.80;99.90
46319;DHT22;32042;50.916;2.926;2023-01-09T04:57:22;7.80;99.90
46319;DHT22;32042;50.916;2.926;2023-01-09T04:59:48;7.80;99.90
46319;DHT22;32042;50.916;2.926;2023-01-09T05:02:14;7.90;99.90
46319;DHT22;32042;50.916;2.926;2023-01-09T05:04:39;7.90;99.90
46319;DHT22;32042;50.916;2.926;2023-01-09T05:07:05;7.90;99.90
46319;DHT22;32042;50.916;2.926;2023-01-09T05:09:31;7.90;99.90
46319;DHT22;32042;50.916;2.926;2023-01-09T05:11:56;7.90;99.90
46319;DHT22;32042;50.916;2.926;2023-01-09T05:14:22;8.00;99.90
46319;DHT22;32042;50.916;2.926;2023-01-09T05:16:48;8.00;99.90
46319;DHT22;32042;50.916;2.926;2023-01-09T05:19:13;8.00;99.90
46319;DHT22;32042;50.916;2.926;2023-01-09T05:21:39;8.00;99.90
46319;DHT22;32042;50.916;2.926;2023-01-09T05:24:05;7.90;99.90
46319;DHT22;32042;50.916;2.926;2023-01-09T05:26:31;8.00;99.90
46319;DHT22;32042;50.916;2.926;2023-01-09T05:28:56;7.90;99.90
46319;DHT22;32042;50.916;2.926;2023-01-09T05:31:24;7.90;99.90
46319;DHT22;32042;50.916;2.926;2023-01-09T05:33:50;7.90;99.90
46319;DHT22;32042;50.916;2.926;2023-01-09T05:36:15;7.90;99.90
46319;DHT22;32042;50.916;2.926;2023-01-09T05:38:41;7.90;99.90
46319;DHT22;32042;50.916;2.926;2023-01-09T05:41:07;7.90;99.90
46319;DHT22;32042;50.916;2.926;2023-01-09T05:43:33;7.80;99.90
46319;DHT22;32042;50.916;2.926;2023-01-09T05:45:59;7.80;99.90
46319;DHT22;32042;50.916;2.926;2023-01-09T05:48:25;7.80;99.90
46319;DHT22;32042;50.916;2.926;2023-01-09T05:50:51;7.70;99.90
46319;DHT22;32042;50.916;2.926;2023-01-09T05:53:16;7.70;99.90
46319;DHT22;32042;50.916;2.926;2023-01-09T05:55:42;7.80;99.90
46319;DHT22;32042;50.916;2.926;2023-01-09T05:58:08;7.80;99.90
46319;DHT22;32042;50.916;2.926;2023-01-09T06:00:34;7.70;99.90
46319;DHT22;32042;50.916;2.926;2023-01-09T06:02:59;7.70;99.90
46319;DHT22;32042;50.916;2.926;2023-01-09T06:05:25;7.80;99.90
46319;DHT22;32042;50.916;2.926;2023-01-09T06:07:51;7.70;99.90
46319;DHT22;32042;50.916;2.926;2023-01-09T06:10:16;7.70;99.90
46319;DHT22;32042;50.916;2.926;2023-01-09T06:12:46;7.70;99.90
46319;DHT22;32042;50.916;2.926;2023-01-09T06:15:12;7.60;99.90
46319;DHT22;32042;50.916;2.926;2023-01-09T06:17:40;7.60;99.90
46319;DHT22;32042;50.916;2.926;2023-01-09T06:20:06;7.50;99.90
46319;DHT22;32042;50.916;2.926;2023-01-09T06:22:32;7.50;99.90
46319;DHT22;32042;50.916;2.926;2023-01-09T06:24:57;7.40;99.90
46319;DHT22;32042;50.916;2.926;2023-01-09T06:27:23;7.30;99.90
46319;DHT22;32042;50.916;2.926;2023-01-09T06:29:49;7.30;99.90
46319;DHT22;32042;50.916;2.926;2023-01-09T06:32:15;7.20;99.90
46319;DHT22;32042;50.916;2.926;2023-01-09T06:34:40;7.30;99.90
46319;DHT22;32042;50.916;2.926;2023-01-09T06:37:06;7.20;99.90
46319;DHT22;32042;50.916;2.926;2023-01-09T06:39:32;7.10;99.90
46319;DHT22;32042;50.916;2.926;2023-01-09T06:41:57;7.10;99.90
46319;DHT22;32042;50.916;2.926;2023-01-09T06:44:23;7.10;99.90
46319;DHT22;32042;50.916;2.926;2023-01-09T06:46:49;7.10;99.90
46319;DHT22;32042;50.916;2.926;2023-01-09T06:49:14;7.00;99.90
46319;DHT22;32042;50.916;2.926;2023-01-09T06:51:42;7.00;99.90
46319;DHT22;32042;50.916;2.926;2023-01-09T06:54:08;7.00;99.90
46319;DHT22;32042;50.916;2.926;2023-01-09T06:56:33;7.00;99.90
46319;DHT22;32042;50.916;2.926;2023-01-09T06:58:59;7.00;99.90
46319;DHT22;32042;50.916;2.926;2023-01-09T07:01:26;6.90;99.90
46319;DHT22;32042;50.916;2.926;2023-01-09T07:03:51;6.90;99.90
46319;DHT22;32042;50.916;2.926;2023-01-09T07:06:17;6.80;99.90
46319;DHT22;32042;50.916;2.926;2023-01-09T07:08:44;6.80;99.90
46319;DHT22;32042;50.916;2.926;2023-01-09T07:11:10;6.80;99.90
46319;DHT22;32042;50.916;2.926;2023-01-09T07:13:35;6.70;99.90
46319;DHT22;32042;50.916;2.926;2023-01-09T07:16:03;6.70;99.90
46319;DHT22;32042;50.916;2.926;2023-01-09T07:18:30;6.70;99.90
46319;DHT22;32042;50.916;2.926;2023-01-09T07:20:56;6.60;99.90
46319;DHT22;32042;50.916;2.926;2023-01-09T07:23:21;6.60;99.90
46319;DHT22;32042;50.916;2.926;2023-01-09T07:25:50;6.60;99.90
46319;DHT22;32042;50.916;2.926;2023-01-09T07:28:16;6.50;99.90
46319;DHT22;32042;50.916;2.926;2023-01-09T07:30:42;6.50;99.90
46319;DHT22;32042;50.916;2.926;2023-01-09T07:33:08;6.50;99.90
46319;DHT22;32042;50.916;2.926;2023-01-09T07:35:34;6.50;99.90
46319;DHT22;32042;50.916;2.926;2023-01-09T07:37:59;6.50;99.90
46319;DHT22;32042;50.916;2.926;2023-01-09T07:40:25;6.50;99.90
46319;DHT22;32042;50.916;2.926;2023-01-09T07:42:54;6.60;99.90
46319;DHT22;32042;50.916;2.926;2023-01-09T07:45:20;6.60;99.90
46319;DHT22;32042;50.916;2.926;2023-01-09T07:47:46;6.60;99.90
46319;DHT22;32042;50.916;2.926;2023-01-09T07:50:11;6.60;99.90
46319;DHT22;32042;50.916;2.926;2023-01-09T07:52:37;6.70;99.90
46319;DHT22;32042;50.916;2.926;2023-01-09T07:55:03;6.70;99.90
46319;DHT22;32042;50.916;2.926;2023-01-09T07:57:29;6.70;99.90
46319;DHT22;32042;50.916;2.926;2023-01-09T07:59:55;6.80;99.90
46319;DHT22;32042;50.916;2.926;2023-01-09T08:02:21;6.80;99.90
46319;DHT22;32042;50.916;2.926;2023-01-09T08:04:47;6.90;99.90
46319;DHT22;32042;50.916;2.926;2023-01-09T08:07:12;6.90;99.90
46319;DHT22;32042;50.916;2.926;2023-01-09T08:09:38;6.90;99.90
46319;DHT22;32042;50.916;2.926;2023-01-09T08:12:04;7.00;99.90
46319;DHT22;32042;50.916;2.926;2023-01-09T08:14:30;7.00;99.90
46319;DHT22;32042;50.916;2.926;2023-01-09T08:16:55;7.00;99.90
46319;DHT22;32042;50.916;2.926;2023-01-09T08:19:21;7.00;99.90
46319;DHT22;32042;50.916;2.926;2023-01-09T08:21:48;6.90;99.90
46319;DHT22;32042;50.916;2.926;2023-01-09T08:24:15;6.90;99.90
46319;DHT22;32042;50.916;2.926;2023-01-09T08:26:40;6.90;99.90
46319;DHT22;32042;50.916;2.926;2023-01-09T08:29:06;6.90;99.90
46319;DHT22;32042;50.916;2.926;2023-01-09T08:31:32;6.90;99.90
46319;DHT22;32042;50.916;2.926;2023-01-09T08:33:57;6.90;99.90
46319;DHT22;32042;50.916;2.926;2023-01-09T08:36:23;6.90;99.90
46319;DHT22;32042;50.916;2.926;2023-01-09T08:38:49;6.90;99.90
46319;DHT22;32042;50.916;2.926;2023-01-09T08:41:14;7.00;99.90
46319;DHT22;32042;50.916;2.926;2023-01-09T08:43:59;6.90;99.90
46319;DHT22;32042;50.916;2.926;2023-01-09T08:46:43;7.00;99.90
46319;DHT22;32042;50.916;2.926;2023-01-09T08:49:27;7.00;99.90
46319;DHT22;32042;50.916;2.926;2023-01-09T08:51:52;7.00;99.90
46319;DHT22;32042;50.916;2.926;2023-01-09T08:54:18;6.90;99.90
46319;DHT22;32042;50.916;2.926;2023-01-09T08:56:44;6.90;99.90
46319;DHT22;32042;50.916;2.926;2023-01-09T08:59:10;7.00;99.90
46319;DHT22;32042;50.916;2.926;2023-01-09T09:01:36;7.00;99.90
46319;DHT22;32042;50.916;2.926;2023-01-09T09:04:02;6.90;99.90
46319;DHT22;32042;50.916;2.926;2023-01-09T09:06:30;6.90;99.90
46319;DHT22;32042;50.916;2.926;2023-01-09T09:08:55;6.90;99.90
46319;DHT22;32042;50.916;2.926;2023-01-09T09:11:21;6.90;99.90
46319;DHT22;32042;50.916;2.926;2023-01-09T09:13:47;7.00;99.90
46319;DHT22;32042;50.916;2.926;2023-01-09T09:16:12;6.90;99.90
46319;DHT22;32042;50.916;2.926;2023-01-09T09:18:38;7.00;99.90
46319;DHT22;32042;50.916;2.926;2023-01-09T09:21:04;6.90;99.90
46319;DHT22;32042;50.916;2.926;2023-01-09T09:23:29;6.90;99.90
46319;DHT22;32042;50.916;2.926;2023-01-09T09:25:55;7.00;99.90
46319;DHT22;32042;50.916;2.926;2023-01-09T09:28:21;7.00;99.90
46319;DHT22;32042;50.916;2.926;2023-01-09T09:30:46;7.00;99.90
46319;DHT22;32042;50.916;2.926;2023-01-09T09:33:12;7.00;99.90
46319;DHT22;32042;50.916;2.926;2023-01-09T09:35:38;7.00;99.90
46319;DHT22;32042;50.916;2.926;2023-01-09T09:38:04;7.10;99.90
46319;DHT22;32042;50.916;2.926;2023-01-09T09:40:46;7.00;99.90
46319;DHT22;32042;50.916;2.926;2023-01-09T09:43:38;7.00;99.90
46319;DHT22;32042;50.916;2.926;2023-01-09T09:46:57;7.00;99.90
46319;DHT22;32042;50.916;2.926;2023-01-09T09:55:29;7.10;99.90
46319;DHT22;32042;50.916;2.926;2023-01-09T09:57:59;7.20;99.90
46319;DHT22;32042;50.916;2.926;2023-01-09T10:00:25;7.20;99.90
46319;DHT22;32042;50.916;2.926;2023-01-09T10:02:57;7.20;99.90
46319;DHT22;32042;50.916;2.926;2023-01-09T10:05:33;7.30;99.90
46319;DHT22;32042;50.916;2.926;2023-01-09T10:08:05;7.30;99.90
46319;DHT22;32042;50.916;2.926;2023-01-09T10:10:38;7.40;99.90
46319;DHT22;32042;50.916;2.926;2023-01-09T10:13:08;7.40;99.90
46319;DHT22;32042;50.916;2.926;2023-01-09T10:16:08;7.50;99.90
46319;DHT22;32042;50.916;2.926;2023-01-09T10:30:42;7.60;99.90
46319;DHT22;32042;50.916;2.926;2023-01-09T10:36:28;7.70;99.90
46319;DHT22;32042;50.916;2.926;2023-01-09T10:39:00;7.80;99.90
46319;DHT22;32042;50.916;2.926;2023-01-09T10:41:45;7.80;99.90
46319;DHT22;32042;50.916;2.926;2023-01-09T10:44:31;7.80;99.90
46319;DHT22;32042;50.916;2.926;2023-01-09T10:47:04;7.90;99.90
46319;DHT22;32042;50.916;2.926;2023-01-09T10:49:34;7.90;99.90
46319;DHT22;32042;50.916;2.926;2023-01-09T10:52:16;8.00;99.90
46319;DHT22;32042;50.916;2.926;2023-01-09T10:54:55;8.10;99.90
46319;DHT22;32042;50.916;2.926;2023-01-09T10:57:41;8.20;99.90
46319;DHT22;32042;50.916;2.926;2023-01-09T11:00:14;8.40;99.90
46319;DHT22;32042;50.916;2.926;2023-01-09T11:02:40;8.50;99.90
46319;DHT22;32042;50.916;2.926;2023-01-09T11:05:06;8.60;99.90
46319;DHT22;32042;50.916;2.926;2023-01-09T11:07:37;8.70;99.90
46319;DHT22;32042;50.916;2.926;2023-01-09T11:10:09;8.80;99.90
46319;DHT22;32042;50.916;2.926;2023-01-09T11:12:37;8.70;99.90
46319;DHT22;32042;50.916;2.926;2023-01-09T11:17:42;8.80;99.90
46319;DHT22;32042;50.916;2.926;2023-01-09T11:20:27;8.80;99.90
46319;DHT22;32042;50.916;2.926;2023-01-09T11:22:55;8.80;99.90
46319;DHT22;32042;50.916;2.926;2023-01-09T11:25:24;8.90;99.90
46319;DHT22;32042;50.916;2.926;2023-01-09T11:30:33;9.00;99.90
46319;DHT22;32042;50.916;2.926;2023-01-09T11:33:16;9.00;99.90
46319;DHT22;32042;50.916;2.926;2023-01-09T11:36:10;9.00;99.90
46319;DHT22;32042;50.916;2.926;2023-01-09T11:38:53;9.10;99.90
46319;DHT22;32042;50.916;2.926;2023-01-09T11:41:37;9.10;99.90
46319;DHT22;32042;50.916;2.926;2023-01-09T11:44:03;9.00;99.90
46319;DHT22;32042;50.916;2.926;2023-01-09T11:46:36;9.00;99.90
46319;DHT22;32042;50.916;2.926;2023-01-09T11:49:29;9.10;99.90
46319;DHT22;32042;50.916;2.926;2023-01-09T11:52:15;9.20;99.90
46319;DHT22;32042;50.916;2.926;2023-01-09T11:54:59;9.30;99.90
46319;DHT22;32042;50.916;2.926;2023-01-09T11:57:29;9.20;99.90
46319;DHT22;32042;50.916;2.926;2023-01-09T12:00:18;9.30;99.90
46319;DHT22;32042;50.916;2.926;2023-01-09T12:03:46;9.40;99.90
46319;DHT22;32042;50.916;2.926;2023-01-09T12:11:15;9.40;99.90
46319;DHT22;32042;50.916;2.926;2023-01-09T12:16:39;9.30;99.90
46319;DHT22;32042;50.916;2.926;2023-01-09T12:30:54;9.40;99.90
46319;DHT22;32042;50.916;2.926;2023-01-09T12:52:33;8.70;99.90
46319;DHT22;32042;50.916;2.926;2023-01-09T12:55:19;8.80;99.90
46319;DHT22;32042;50.916;2.926;2023-01-09T12:57:53;8.80;99.90
46319;DHT22;32042;50.916;2.926;2023-01-09T13:00:39;8.90;99.90
46319;DHT22;32042;50.916;2.926;2023-01-09T13:03:19;9.00;99.90
46319;DHT22;32042;50.916;2.926;2023-01-09T13:05:51;9.10;99.90
46319;DHT22;32042;50.916;2.926;2023-01-09T13:08:32;9.10;99.90
46319;DHT22;32042;50.916;2.926;2023-01-09T13:16:21;9.20;99.90
46319;DHT22;32042;50.916;2.926;2023-01-09T13:19:02;9.10;99.90
46319;DHT22;32042;50.916;2.926;2023-01-09T13:21:30;9.00;99.90
46319;DHT22;32042;50.916;2.926;2023-01-09T13:26:50;8.80;99.90
46319;DHT22;32042;50.916;2.926;2023-01-09T13:29:51;8.80;99.90
46319;DHT22;32042;50.916;2.926;2023-01-09T13:34:55;8.70;99.90
46319;DHT22;32042;50.916;2.926;2023-01-09T13:37:33;8.60;99.90
46319;DHT22;32042;50.916;2.926;2023-01-09T13:40:03;8.60;99.90
46319;DHT22;32042;50.916;2.926;2023-01-09T13:42:30;8.60;99.90
46319;DHT22;32042;50.916;2.926;2023-01-09T13:47:42;8.50;99.90
46319;DHT22;32042;50.916;2.926;2023-01-09T13:52:37;8.60;99.90
